sensor_id;sensor_type;location;lat;lon;timestamp;P1;durP1;ratioP1;P2;durP2;ratioP2
58950;SDS011;44730;53.158;6.398;2023-05-17T00:01:52;8.77;;;3.15;;
58950;SDS011;44730;53.158;6.398;2023-05-17T00:04:20;8.00;;;2.92;;
58950;SDS011;44730;53.158;6.398;2023-05-17T00:06:46;8.25;;;3.58;;
58950;SDS011;44730;53.158;6.398;2023-05-17T00:09:12;10.93;;;3.75;;
58950;SDS011;44730;53.158;6.398;2023-05-17T00:11:38;15.45;;;3.28;;
58950;SDS011;44730;53.158;6.398;2023-05-17T00:14:04;11.70;;;2.95;;
58950;SDS011;44730;53.158;6.398;2023-05-17T00:16:30;7.63;;;3.35;;
58950;SDS011;44730;53.158;6.398;2023-05-17T00:18:56;9.05;;;2.92;;
58950;SDS011;44730;53.158;6.398;2023-05-17T00:21:23;9.10;;;3.30;;
58950;SDS011;44730;53.158;6.398;2023-05-17T00:23:49;11.73;;;3.45;;
58950;SDS011;44730;53.158;6.398;2023-05-17T00:26:15;8.45;;;2.90;;
58950;SDS011;44730;53.158;6.398;2023-05-17T00:28:41;15.95;;;3.65;;
58950;SDS011;44730;53.158;6.398;2023-05-17T00:31:08;9.60;;;3.28;;
58950;SDS011;44730;53.158;6.398;2023-05-17T00:33:34;11.10;;;3.67;;
58950;SDS011;44730;53.158;6.398;2023-05-17T00:36:01;7.15;;;3.47;;
58950;SDS011;44730;53.158;6.398;2023-05-17T00:38:27;12.30;;;3.75;;
58950;SDS011;44730;53.158;6.398;2023-05-17T00:40:54;11.23;;;3.22;;
58950;SDS011;44730;53.158;6.398;2023-05-17T00:43:20;6.97;;;2.90;;
58950;SDS011;44730;53.158;6.398;2023-05-17T00:45:47;14.40;;;3.17;;
58950;SDS011;44730;53.158;6.398;2023-05-17T00:48:14;8.93;;;2.88;;
58950;SDS011;44730;53.158;6.398;2023-05-17T00:50:40;12.32;;;3.00;;
58950;SDS011;44730;53.158;6.398;2023-05-17T00:53:06;10.65;;;2.80;;
58950;SDS011;44730;53.158;6.398;2023-05-17T00:55:34;10.48;;;3.17;;
58950;SDS011;44730;53.158;6.398;2023-05-17T00:58:00;9.63;;;3.05;;
58950;SDS011;44730;53.158;6.398;2023-05-17T01:00:26;8.45;;;3.35;;
58950;SDS011;44730;53.158;6.398;2023-05-17T01:02:52;13.88;;;3.38;;
58950;SDS011;44730;53.158;6.398;2023-05-17T01:05:19;12.93;;;3.35;;
58950;SDS011;44730;53.158;6.398;2023-05-17T01:07:45;11.05;;;3.58;;
58950;SDS011;44730;53.158;6.398;2023-05-17T01:10:11;10.68;;;3.67;;
58950;SDS011;44730;53.158;6.398;2023-05-17T01:12:45;9.77;;;3.35;;
58950;SDS011;44730;53.158;6.398;2023-05-17T01:17:40;13.05;;;2.70;;
58950;SDS011;44730;53.158;6.398;2023-05-17T01:20:17;6.82;;;2.50;;
58950;SDS011;44730;53.158;6.398;2023-05-17T01:23:01;7.07;;;3.03;;
58950;SDS011;44730;53.158;6.398;2023-05-17T01:28:06;10.15;;;2.85;;
58950;SDS011;44730;53.158;6.398;2023-05-17T01:30:33;9.68;;;3.03;;
58950;SDS011;44730;53.158;6.398;2023-05-17T01:32:59;8.10;;;2.90;;
58950;SDS011;44730;53.158;6.398;2023-05-17T01:35:27;7.10;;;2.90;;
58950;SDS011;44730;53.158;6.398;2023-05-17T01:37:59;7.35;;;2.90;;
58950;SDS011;44730;53.158;6.398;2023-05-17T01:40:25;8.85;;;3.10;;
58950;SDS011;44730;53.158;6.398;2023-05-17T01:43:01;13.50;;;3.95;;
58950;SDS011;44730;53.158;6.398;2023-05-17T01:45:30;11.00;;;3.30;;
58950;SDS011;44730;53.158;6.398;2023-05-17T01:50:42;10.35;;;2.38;;
58950;SDS011;44730;53.158;6.398;2023-05-17T01:53:16;10.98;;;2.85;;
58950;SDS011;44730;53.158;6.398;2023-05-17T01:58:12;9.30;;;2.97;;
58950;SDS011;44730;53.158;6.398;2023-05-17T02:00:40;7.35;;;2.38;;
58950;SDS011;44730;53.158;6.398;2023-05-17T02:03:11;8.32;;;2.83;;
58950;SDS011;44730;53.158;6.398;2023-05-17T02:05:37;9.20;;;2.85;;
58950;SDS011;44730;53.158;6.398;2023-05-17T02:08:03;10.85;;;3.15;;
58950;SDS011;44730;53.158;6.398;2023-05-17T02:10:30;8.52;;;2.40;;
58950;SDS011;44730;53.158;6.398;2023-05-17T02:12:56;9.68;;;3.05;;
58950;SDS011;44730;53.158;6.398;2023-05-17T02:15:22;9.38;;;3.30;;
58950;SDS011;44730;53.158;6.398;2023-05-17T02:17:48;8.95;;;2.78;;
58950;SDS011;44730;53.158;6.398;2023-05-17T02:20:14;7.65;;;3.10;;
58950;SDS011;44730;53.158;6.398;2023-05-17T02:22:40;6.53;;;2.30;;
58950;SDS011;44730;53.158;6.398;2023-05-17T02:25:06;5.65;;;2.38;;
58950;SDS011;44730;53.158;6.398;2023-05-17T02:27:33;7.32;;;2.78;;
58950;SDS011;44730;53.158;6.398;2023-05-17T02:29:59;6.00;;;2.90;;
58950;SDS011;44730;53.158;6.398;2023-05-17T02:32:26;7.63;;;2.85;;
58950;SDS011;44730;53.158;6.398;2023-05-17T02:34:53;6.13;;;2.58;;
58950;SDS011;44730;53.158;6.398;2023-05-17T02:37:19;8.23;;;2.40;;
58950;SDS011;44730;53.158;6.398;2023-05-17T02:39:45;10.23;;;2.92;;
58950;SDS011;44730;53.158;6.398;2023-05-17T02:42:11;6.63;;;2.70;;
58950;SDS011;44730;53.158;6.398;2023-05-17T02:44:38;7.28;;;2.33;;
58950;SDS011;44730;53.158;6.398;2023-05-17T02:47:06;11.57;;;2.17;;
58950;SDS011;44730;53.158;6.398;2023-05-17T02:49:32;5.78;;;2.20;;
58950;SDS011;44730;53.158;6.398;2023-05-17T02:51:58;5.78;;;2.75;;
58950;SDS011;44730;53.158;6.398;2023-05-17T02:54:25;10.32;;;2.67;;
58950;SDS011;44730;53.158;6.398;2023-05-17T02:56:51;9.23;;;2.65;;
58950;SDS011;44730;53.158;6.398;2023-05-17T02:59:17;7.65;;;2.20;;
58950;SDS011;44730;53.158;6.398;2023-05-17T03:01:43;9.35;;;2.72;;
58950;SDS011;44730;53.158;6.398;2023-05-17T03:04:09;6.75;;;2.28;;
58950;SDS011;44730;53.158;6.398;2023-05-17T03:06:36;8.77;;;3.03;;
58950;SDS011;44730;53.158;6.398;2023-05-17T03:09:02;4.93;;;2.00;;
58950;SDS011;44730;53.158;6.398;2023-05-17T03:11:28;9.02;;;3.10;;
58950;SDS011;44730;53.158;6.398;2023-05-17T03:13:55;5.53;;;2.67;;
58950;SDS011;44730;53.158;6.398;2023-05-17T03:16:22;9.65;;;2.30;;
58950;SDS011;44730;53.158;6.398;2023-05-17T03:18:48;5.53;;;2.28;;
58950;SDS011;44730;53.158;6.398;2023-05-17T03:21:15;8.38;;;2.05;;
58950;SDS011;44730;53.158;6.398;2023-05-17T03:23:42;7.57;;;2.65;;
58950;SDS011;44730;53.158;6.398;2023-05-17T03:26:08;7.45;;;2.10;;
58950;SDS011;44730;53.158;6.398;2023-05-17T03:28:35;4.22;;;1.95;;
58950;SDS011;44730;53.158;6.398;2023-05-17T03:31:01;8.23;;;2.38;;
58950;SDS011;44730;53.158;6.398;2023-05-17T03:33:27;8.35;;;2.30;;
58950;SDS011;44730;53.158;6.398;2023-05-17T03:35:53;7.57;;;2.35;;
58950;SDS011;44730;53.158;6.398;2023-05-17T03:38:19;5.18;;;1.85;;
58950;SDS011;44730;53.158;6.398;2023-05-17T03:40:45;6.55;;;2.30;;
58950;SDS011;44730;53.158;6.398;2023-05-17T03:43:13;4.43;;;1.90;;
58950;SDS011;44730;53.158;6.398;2023-05-17T03:45:39;5.50;;;2.17;;
58950;SDS011;44730;53.158;6.398;2023-05-17T03:48:05;8.48;;;2.60;;
58950;SDS011;44730;53.158;6.398;2023-05-17T03:50:31;4.38;;;2.00;;
58950;SDS011;44730;53.158;6.398;2023-05-17T03:52:58;4.85;;;2.10;;
58950;SDS011;44730;53.158;6.398;2023-05-17T03:55:25;5.03;;;2.00;;
58950;SDS011;44730;53.158;6.398;2023-05-17T03:57:51;5.00;;;2.03;;
58950;SDS011;44730;53.158;6.398;2023-05-17T04:00:17;5.38;;;1.92;;
58950;SDS011;44730;53.158;6.398;2023-05-17T04:02:49;8.63;;;2.75;;
58950;SDS011;44730;53.158;6.398;2023-05-17T04:05:16;5.95;;;1.80;;
58950;SDS011;44730;53.158;6.398;2023-05-17T04:07:42;5.22;;;1.95;;
58950;SDS011;44730;53.158;6.398;2023-05-17T04:10:09;5.68;;;2.03;;
58950;SDS011;44730;53.158;6.398;2023-05-17T04:12:36;4.95;;;1.90;;
58950;SDS011;44730;53.158;6.398;2023-05-17T04:15:03;4.15;;;1.88;;
58950;SDS011;44730;53.158;6.398;2023-05-17T04:17:29;4.30;;;1.77;;
58950;SDS011;44730;53.158;6.398;2023-05-17T04:19:56;7.32;;;1.85;;
58950;SDS011;44730;53.158;6.398;2023-05-17T04:22:22;3.90;;;1.60;;
58950;SDS011;44730;53.158;6.398;2023-05-17T04:24:49;3.83;;;1.60;;
58950;SDS011;44730;53.158;6.398;2023-05-17T04:27:15;3.75;;;1.70;;
58950;SDS011;44730;53.158;6.398;2023-05-17T04:29:41;8.63;;;2.25;;
58950;SDS011;44730;53.158;6.398;2023-05-17T04:32:07;7.53;;;1.60;;
58950;SDS011;44730;53.158;6.398;2023-05-17T04:34:34;7.40;;;2.50;;
58950;SDS011;44730;53.158;6.398;2023-05-17T04:37:00;4.80;;;1.75;;
58950;SDS011;44730;53.158;6.398;2023-05-17T04:39:27;5.90;;;1.63;;
58950;SDS011;44730;53.158;6.398;2023-05-17T04:41:53;5.20;;;1.63;;
58950;SDS011;44730;53.158;6.398;2023-05-17T04:44:19;9.65;;;2.53;;
58950;SDS011;44730;53.158;6.398;2023-05-17T04:46:45;6.72;;;1.95;;
58950;SDS011;44730;53.158;6.398;2023-05-17T04:49:11;4.80;;;1.63;;
58950;SDS011;44730;53.158;6.398;2023-05-17T04:51:38;7.47;;;1.52;;
58950;SDS011;44730;53.158;6.398;2023-05-17T04:54:04;4.50;;;1.80;;
58950;SDS011;44730;53.158;6.398;2023-05-17T04:56:35;3.85;;;1.98;;
58950;SDS011;44730;53.158;6.398;2023-05-17T04:59:02;8.13;;;1.83;;
58950;SDS011;44730;53.158;6.398;2023-05-17T05:01:28;4.95;;;1.67;;
58950;SDS011;44730;53.158;6.398;2023-05-17T05:03:59;4.45;;;1.40;;
58950;SDS011;44730;53.158;6.398;2023-05-17T05:06:31;2.58;;;1.40;;
58950;SDS011;44730;53.158;6.398;2023-05-17T05:08:57;5.63;;;1.65;;
58950;SDS011;44730;53.158;6.398;2023-05-17T05:11:24;5.13;;;1.65;;
58950;SDS011;44730;53.158;6.398;2023-05-17T05:13:50;4.30;;;1.95;;
58950;SDS011;44730;53.158;6.398;2023-05-17T05:16:16;4.47;;;1.70;;
58950;SDS011;44730;53.158;6.398;2023-05-17T05:18:42;5.78;;;2.03;;
58950;SDS011;44730;53.158;6.398;2023-05-17T05:21:08;5.20;;;1.65;;
58950;SDS011;44730;53.158;6.398;2023-05-17T05:23:34;3.25;;;1.50;;
58950;SDS011;44730;53.158;6.398;2023-05-17T05:26:00;7.68;;;2.10;;
58950;SDS011;44730;53.158;6.398;2023-05-17T05:28:26;7.05;;;1.80;;
58950;SDS011;44730;53.158;6.398;2023-05-17T05:30:56;4.38;;;1.67;;
58950;SDS011;44730;53.158;6.398;2023-05-17T05:33:23;5.18;;;1.75;;
58950;SDS011;44730;53.158;6.398;2023-05-17T05:35:49;6.30;;;1.85;;
58950;SDS011;44730;53.158;6.398;2023-05-17T05:38:15;8.43;;;1.95;;
58950;SDS011;44730;53.158;6.398;2023-05-17T05:40:45;2.55;;;1.50;;
58950;SDS011;44730;53.158;6.398;2023-05-17T05:43:14;3.28;;;1.70;;
58950;SDS011;44730;53.158;6.398;2023-05-17T05:45:40;6.70;;;1.88;;
58950;SDS011;44730;53.158;6.398;2023-05-17T05:48:13;5.70;;;1.90;;
58950;SDS011;44730;53.158;6.398;2023-05-17T05:50:42;8.25;;;1.90;;
58950;SDS011;44730;53.158;6.398;2023-05-17T05:53:09;6.75;;;2.00;;
58950;SDS011;44730;53.158;6.398;2023-05-17T05:55:38;5.78;;;1.90;;
58950;SDS011;44730;53.158;6.398;2023-05-17T05:58:05;11.35;;;2.28;;
58950;SDS011;44730;53.158;6.398;2023-05-17T06:00:31;4.82;;;1.95;;
58950;SDS011;44730;53.158;6.398;2023-05-17T06:02:57;3.97;;;1.73;;
58950;SDS011;44730;53.158;6.398;2023-05-17T06:05:24;8.63;;;1.90;;
58950;SDS011;44730;53.158;6.398;2023-05-17T06:07:50;4.78;;;1.83;;
58950;SDS011;44730;53.158;6.398;2023-05-17T06:10:16;5.63;;;1.92;;
58950;SDS011;44730;53.158;6.398;2023-05-17T06:12:42;9.57;;;2.63;;
58950;SDS011;44730;53.158;6.398;2023-05-17T06:15:09;5.47;;;2.13;;
58950;SDS011;44730;53.158;6.398;2023-05-17T06:17:35;5.75;;;2.40;;
58950;SDS011;44730;53.158;6.398;2023-05-17T06:20:01;10.95;;;2.28;;
58950;SDS011;44730;53.158;6.398;2023-05-17T06:22:27;9.05;;;2.40;;
58950;SDS011;44730;53.158;6.398;2023-05-17T06:24:54;4.78;;;2.63;;
58950;SDS011;44730;53.158;6.398;2023-05-17T06:27:20;10.98;;;2.65;;
58950;SDS011;44730;53.158;6.398;2023-05-17T06:29:46;7.28;;;2.20;;
58950;SDS011;44730;53.158;6.398;2023-05-17T06:32:15;5.78;;;2.10;;
58950;SDS011;44730;53.158;6.398;2023-05-17T06:34:41;4.55;;;1.80;;
58950;SDS011;44730;53.158;6.398;2023-05-17T06:37:07;7.13;;;2.15;;
58950;SDS011;44730;53.158;6.398;2023-05-17T06:39:33;7.22;;;2.42;;
58950;SDS011;44730;53.158;6.398;2023-05-17T06:41:59;6.32;;;2.20;;
58950;SDS011;44730;53.158;6.398;2023-05-17T06:44:25;6.85;;;2.70;;
58950;SDS011;44730;53.158;6.398;2023-05-17T06:46:51;7.30;;;2.55;;
58950;SDS011;44730;53.158;6.398;2023-05-17T06:49:18;4.65;;;2.15;;
58950;SDS011;44730;53.158;6.398;2023-05-17T06:51:44;6.60;;;2.20;;
58950;SDS011;44730;53.158;6.398;2023-05-17T06:54:10;6.38;;;2.10;;
58950;SDS011;44730;53.158;6.398;2023-05-17T06:56:36;5.32;;;2.03;;
58950;SDS011;44730;53.158;6.398;2023-05-17T06:59:02;5.80;;;2.45;;
58950;SDS011;44730;53.158;6.398;2023-05-17T07:01:30;8.65;;;2.45;;
58950;SDS011;44730;53.158;6.398;2023-05-17T07:03:56;8.57;;;2.90;;
58950;SDS011;44730;53.158;6.398;2023-05-17T07:06:23;4.97;;;2.17;;
58950;SDS011;44730;53.158;6.398;2023-05-17T07:08:49;8.30;;;2.15;;
58950;SDS011;44730;53.158;6.398;2023-05-17T07:11:16;4.60;;;1.92;;
58950;SDS011;44730;53.158;6.398;2023-05-17T07:13:42;7.13;;;2.70;;
58950;SDS011;44730;53.158;6.398;2023-05-17T07:16:08;5.80;;;2.40;;
58950;SDS011;44730;53.158;6.398;2023-05-17T07:18:34;7.93;;;2.35;;
58950;SDS011;44730;53.158;6.398;2023-05-17T07:21:01;6.55;;;2.38;;
58950;SDS011;44730;53.158;6.398;2023-05-17T07:23:27;7.45;;;2.33;;
58950;SDS011;44730;53.158;6.398;2023-05-17T07:25:58;6.30;;;2.15;;
58950;SDS011;44730;53.158;6.398;2023-05-17T07:28:26;7.95;;;2.92;;
58950;SDS011;44730;53.158;6.398;2023-05-17T07:30:52;7.65;;;2.67;;
58950;SDS011;44730;53.158;6.398;2023-05-17T07:33:19;6.20;;;2.22;;
58950;SDS011;44730;53.158;6.398;2023-05-17T07:35:45;4.93;;;2.00;;
58950;SDS011;44730;53.158;6.398;2023-05-17T07:38:16;7.88;;;2.92;;
58950;SDS011;44730;53.158;6.398;2023-05-17T07:40:42;6.28;;;2.50;;
58950;SDS011;44730;53.158;6.398;2023-05-17T07:43:09;7.72;;;2.25;;
58950;SDS011;44730;53.158;6.398;2023-05-17T07:45:35;6.15;;;2.03;;
58950;SDS011;44730;53.158;6.398;2023-05-17T07:48:02;8.45;;;2.70;;
58950;SDS011;44730;53.158;6.398;2023-05-17T07:50:30;5.65;;;2.35;;
58950;SDS011;44730;53.158;6.398;2023-05-17T07:52:57;3.42;;;2.15;;
58950;SDS011;44730;53.158;6.398;2023-05-17T07:55:23;5.85;;;2.47;;
58950;SDS011;44730;53.158;6.398;2023-05-17T07:57:49;6.63;;;2.28;;
58950;SDS011;44730;53.158;6.398;2023-05-17T08:00:16;6.47;;;1.85;;
58950;SDS011;44730;53.158;6.398;2023-05-17T08:02:44;5.93;;;2.22;;
58950;SDS011;44730;53.158;6.398;2023-05-17T08:05:10;6.28;;;2.50;;
58950;SDS011;44730;53.158;6.398;2023-05-17T08:07:36;6.78;;;2.72;;
58950;SDS011;44730;53.158;6.398;2023-05-17T08:10:02;10.13;;;2.67;;
58950;SDS011;44730;53.158;6.398;2023-05-17T08:12:28;6.22;;;2.80;;
58950;SDS011;44730;53.158;6.398;2023-05-17T08:14:57;12.20;;;2.72;;
58950;SDS011;44730;53.158;6.398;2023-05-17T08:17:23;5.80;;;2.55;;
58950;SDS011;44730;53.158;6.398;2023-05-17T08:19:50;7.63;;;2.50;;
58950;SDS011;44730;53.158;6.398;2023-05-17T08:22:16;7.50;;;3.00;;
58950;SDS011;44730;53.158;6.398;2023-05-17T08:24:42;7.57;;;2.70;;
58950;SDS011;44730;53.158;6.398;2023-05-17T08:27:11;8.77;;;2.67;;
58950;SDS011;44730;53.158;6.398;2023-05-17T08:29:37;8.75;;;2.92;;
58950;SDS011;44730;53.158;6.398;2023-05-17T08:32:04;6.35;;;2.05;;
58950;SDS011;44730;53.158;6.398;2023-05-17T08:34:30;8.10;;;2.80;;
58950;SDS011;44730;53.158;6.398;2023-05-17T08:36:56;6.30;;;2.50;;
58950;SDS011;44730;53.158;6.398;2023-05-17T08:39:22;6.07;;;2.58;;
58950;SDS011;44730;53.158;6.398;2023-05-17T08:41:48;4.75;;;2.15;;
58950;SDS011;44730;53.158;6.398;2023-05-17T08:44:15;5.32;;;2.42;;
58950;SDS011;44730;53.158;6.398;2023-05-17T08:46:42;5.70;;;2.13;;
58950;SDS011;44730;53.158;6.398;2023-05-17T08:49:08;3.67;;;2.05;;
58950;SDS011;44730;53.158;6.398;2023-05-17T08:51:39;5.63;;;2.00;;
58950;SDS011;44730;53.158;6.398;2023-05-17T08:54:06;5.18;;;2.17;;
58950;SDS011;44730;53.158;6.398;2023-05-17T08:56:33;4.05;;;2.10;;
58950;SDS011;44730;53.158;6.398;2023-05-17T08:59:00;3.80;;;2.20;;
58950;SDS011;44730;53.158;6.398;2023-05-17T09:01:27;4.07;;;2.13;;
58950;SDS011;44730;53.158;6.398;2023-05-17T09:03:54;3.67;;;2.05;;
58950;SDS011;44730;53.158;6.398;2023-05-17T09:06:20;5.30;;;1.90;;
58950;SDS011;44730;53.158;6.398;2023-05-17T09:08:48;8.25;;;2.40;;
58950;SDS011;44730;53.158;6.398;2023-05-17T09:14:09;4.90;;;2.10;;
58950;SDS011;44730;53.158;6.398;2023-05-17T09:16:41;3.95;;;2.10;;
58950;SDS011;44730;53.158;6.398;2023-05-17T09:19:08;6.72;;;1.95;;
58950;SDS011;44730;53.158;6.398;2023-05-17T09:21:39;5.40;;;2.03;;
58950;SDS011;44730;53.158;6.398;2023-05-17T09:24:05;6.10;;;2.13;;
58950;SDS011;44730;53.158;6.398;2023-05-17T09:26:38;4.72;;;2.08;;
58950;SDS011;44730;53.158;6.398;2023-05-17T09:29:15;6.13;;;2.15;;
58950;SDS011;44730;53.158;6.398;2023-05-17T09:31:41;4.50;;;2.08;;
58950;SDS011;44730;53.158;6.398;2023-05-17T09:34:08;5.00;;;2.20;;
58950;SDS011;44730;53.158;6.398;2023-05-17T09:36:41;3.78;;;1.80;;
58950;SDS011;44730;53.158;6.398;2023-05-17T09:39:10;5.65;;;2.45;;
58950;SDS011;44730;53.158;6.398;2023-05-17T09:44:07;4.45;;;1.95;;
58950;SDS011;44730;53.158;6.398;2023-05-17T09:46:36;3.75;;;2.00;;
58950;SDS011;44730;53.158;6.398;2023-05-17T09:49:05;6.03;;;1.98;;
58950;SDS011;44730;53.158;6.398;2023-05-17T09:51:34;4.65;;;2.15;;
58950;SDS011;44730;53.158;6.398;2023-05-17T09:54:01;4.43;;;2.15;;
58950;SDS011;44730;53.158;6.398;2023-05-17T09:56:30;5.95;;;2.22;;
58950;SDS011;44730;53.158;6.398;2023-05-17T09:58:57;5.05;;;2.05;;
58950;SDS011;44730;53.158;6.398;2023-05-17T10:01:25;5.72;;;2.08;;
58950;SDS011;44730;53.158;6.398;2023-05-17T10:03:52;4.72;;;2.10;;
58950;SDS011;44730;53.158;6.398;2023-05-17T10:06:20;5.65;;;2.10;;
58950;SDS011;44730;53.158;6.398;2023-05-17T10:08:48;8.75;;;2.30;;
58950;SDS011;44730;53.158;6.398;2023-05-17T10:11:15;5.15;;;1.95;;
58950;SDS011;44730;53.158;6.398;2023-05-17T10:13:51;4.50;;;1.88;;
58950;SDS011;44730;53.158;6.398;2023-05-17T10:16:20;5.90;;;2.10;;
58950;SDS011;44730;53.158;6.398;2023-05-17T10:18:47;6.50;;;2.40;;
58950;SDS011;44730;53.158;6.398;2023-05-17T10:21:15;3.38;;;2.00;;
58950;SDS011;44730;53.158;6.398;2023-05-17T10:23:42;4.00;;;2.00;;
58950;SDS011;44730;53.158;6.398;2023-05-17T10:26:08;7.30;;;2.10;;
58950;SDS011;44730;53.158;6.398;2023-05-17T10:28:36;5.80;;;2.10;;
58950;SDS011;44730;53.158;6.398;2023-05-17T10:31:04;3.45;;;2.00;;
58950;SDS011;44730;53.158;6.398;2023-05-17T10:33:30;4.68;;;1.98;;
58950;SDS011;44730;53.158;6.398;2023-05-17T10:35:57;7.72;;;2.65;;
58950;SDS011;44730;53.158;6.398;2023-05-17T10:38:24;4.72;;;1.90;;
58950;SDS011;44730;53.158;6.398;2023-05-17T10:40:51;3.83;;;1.73;;
58950;SDS011;44730;53.158;6.398;2023-05-17T10:43:19;6.32;;;1.88;;
58950;SDS011;44730;53.158;6.398;2023-05-17T10:45:46;3.00;;;2.00;;
58950;SDS011;44730;53.158;6.398;2023-05-17T10:48:13;6.45;;;2.05;;
58950;SDS011;44730;53.158;6.398;2023-05-17T10:50:43;2.90;;;1.98;;
58950;SDS011;44730;53.158;6.398;2023-05-17T10:53:11;2.92;;;1.65;;
58950;SDS011;44730;53.158;6.398;2023-05-17T10:55:41;4.93;;;2.00;;
58950;SDS011;44730;53.158;6.398;2023-05-17T10:58:18;7.10;;;2.30;;
58950;SDS011;44730;53.158;6.398;2023-05-17T11:00:48;4.32;;;2.00;;
58950;SDS011;44730;53.158;6.398;2023-05-17T11:05:42;5.53;;;2.20;;
58950;SDS011;44730;53.158;6.398;2023-05-17T11:08:13;5.60;;;2.10;;
58950;SDS011;44730;53.158;6.398;2023-05-17T11:11:06;4.55;;;2.10;;
58950;SDS011;44730;53.158;6.398;2023-05-17T11:13:26;3.78;;;1.67;;
58950;SDS011;44730;53.158;6.398;2023-05-17T11:16:06;4.13;;;2.10;;
58950;SDS011;44730;53.158;6.398;2023-05-17T11:18:45;5.35;;;2.03;;
58950;SDS011;44730;53.158;6.398;2023-05-17T11:21:12;3.90;;;2.10;;
58950;SDS011;44730;53.158;6.398;2023-05-17T11:23:41;4.55;;;2.22;;
58950;SDS011;44730;53.158;6.398;2023-05-17T11:26:20;5.80;;;2.42;;
58950;SDS011;44730;53.158;6.398;2023-05-17T11:28:46;8.20;;;2.20;;
58950;SDS011;44730;53.158;6.398;2023-05-17T11:31:13;4.90;;;1.88;;
58950;SDS011;44730;53.158;6.398;2023-05-17T11:33:42;4.82;;;1.90;;
58950;SDS011;44730;53.158;6.398;2023-05-17T11:36:27;6.13;;;1.85;;
58950;SDS011;44730;53.158;6.398;2023-05-17T11:41:21;4.25;;;2.30;;
58950;SDS011;44730;53.158;6.398;2023-05-17T11:43:48;5.55;;;2.10;;
58950;SDS011;44730;53.158;6.398;2023-05-17T11:46:20;5.20;;;2.28;;
58950;SDS011;44730;53.158;6.398;2023-05-17T11:48:46;5.50;;;2.33;;
58950;SDS011;44730;53.158;6.398;2023-05-17T11:51:13;4.75;;;1.98;;
58950;SDS011;44730;53.158;6.398;2023-05-17T11:53:44;5.32;;;2.30;;
58950;SDS011;44730;53.158;6.398;2023-05-17T11:56:11;3.22;;;2.33;;
58950;SDS011;44730;53.158;6.398;2023-05-17T11:58:38;4.00;;;2.00;;
58950;SDS011;44730;53.158;6.398;2023-05-17T12:01:06;6.28;;;2.10;;
58950;SDS011;44730;53.158;6.398;2023-05-17T12:03:34;8.88;;;2.55;;
58950;SDS011;44730;53.158;6.398;2023-05-17T12:06:01;4.40;;;1.80;;
58950;SDS011;44730;53.158;6.398;2023-05-17T12:08:28;4.10;;;2.00;;
58950;SDS011;44730;53.158;6.398;2023-05-17T12:10:56;7.10;;;2.33;;
58950;SDS011;44730;53.158;6.398;2023-05-17T12:13:22;3.22;;;1.98;;
58950;SDS011;44730;53.158;6.398;2023-05-17T12:16:10;4.70;;;2.05;;
58950;SDS011;44730;53.158;6.398;2023-05-17T12:18:38;4.22;;;1.90;;
58950;SDS011;44730;53.158;6.398;2023-05-17T12:21:05;7.38;;;2.17;;
58950;SDS011;44730;53.158;6.398;2023-05-17T12:23:32;5.22;;;2.17;;
58950;SDS011;44730;53.158;6.398;2023-05-17T12:28:28;6.63;;;2.00;;
58950;SDS011;44730;53.158;6.398;2023-05-17T12:30:54;3.35;;;1.90;;
58950;SDS011;44730;53.158;6.398;2023-05-17T12:33:26;5.32;;;1.95;;
58950;SDS011;44730;53.158;6.398;2023-05-17T12:35:53;5.43;;;2.15;;
58950;SDS011;44730;53.158;6.398;2023-05-17T12:38:19;3.60;;;1.95;;
58950;SDS011;44730;53.158;6.398;2023-05-17T12:40:47;3.90;;;1.83;;
58950;SDS011;44730;53.158;6.398;2023-05-17T12:43:14;3.85;;;2.05;;
58950;SDS011;44730;53.158;6.398;2023-05-17T12:45:40;4.50;;;1.85;;
58950;SDS011;44730;53.158;6.398;2023-05-17T12:48:06;4.35;;;2.03;;
58950;SDS011;44730;53.158;6.398;2023-05-17T12:50:32;5.05;;;2.15;;
58950;SDS011;44730;53.158;6.398;2023-05-17T12:53:06;4.10;;;2.08;;
58950;SDS011;44730;53.158;6.398;2023-05-17T12:55:37;2.95;;;1.70;;
58950;SDS011;44730;53.158;6.398;2023-05-17T12:58:03;4.10;;;1.98;;
58950;SDS011;44730;53.158;6.398;2023-05-17T13:00:30;4.72;;;2.00;;
58950;SDS011;44730;53.158;6.398;2023-05-17T13:02:56;3.55;;;1.80;;
58950;SDS011;44730;53.158;6.398;2023-05-17T13:05:22;2.80;;;1.90;;
58950;SDS011;44730;53.158;6.398;2023-05-17T13:07:48;4.82;;;2.20;;
58950;SDS011;44730;53.158;6.398;2023-05-17T13:10:22;3.70;;;1.77;;
58950;SDS011;44730;53.158;6.398;2023-05-17T13:12:55;7.10;;;2.60;;
58950;SDS011;44730;53.158;6.398;2023-05-17T13:15:30;7.43;;;2.33;;
58950;SDS011;44730;53.158;6.398;2023-05-17T13:17:57;4.78;;;2.05;;
58950;SDS011;44730;53.158;6.398;2023-05-17T13:20:30;5.30;;;2.00;;
58950;SDS011;44730;53.158;6.398;2023-05-17T13:22:56;7.43;;;2.30;;
58950;SDS011;44730;53.158;6.398;2023-05-17T13:25:22;5.20;;;2.05;;
58950;SDS011;44730;53.158;6.398;2023-05-17T13:27:48;4.82;;;1.95;;
58950;SDS011;44730;53.158;6.398;2023-05-17T13:30:15;3.75;;;1.63;;
58950;SDS011;44730;53.158;6.398;2023-05-17T13:32:41;4.03;;;2.20;;
58950;SDS011;44730;53.158;6.398;2023-05-17T13:35:08;3.65;;;1.80;;
58950;SDS011;44730;53.158;6.398;2023-05-17T13:37:34;6.32;;;1.90;;
58950;SDS011;44730;53.158;6.398;2023-05-17T13:40:01;5.82;;;2.28;;
58950;SDS011;44730;53.158;6.398;2023-05-17T13:42:29;5.95;;;2.17;;
58950;SDS011;44730;53.158;6.398;2023-05-17T13:44:56;3.83;;;1.92;;
58950;SDS011;44730;53.158;6.398;2023-05-17T13:47:22;5.10;;;2.28;;
58950;SDS011;44730;53.158;6.398;2023-05-17T13:49:48;6.32;;;2.25;;
58950;SDS011;44730;53.158;6.398;2023-05-17T13:52:14;4.13;;;2.35;;
58950;SDS011;44730;53.158;6.398;2023-05-17T13:54:42;4.47;;;1.88;;
58950;SDS011;44730;53.158;6.398;2023-05-17T13:57:08;3.88;;;1.85;;
58950;SDS011;44730;53.158;6.398;2023-05-17T13:59:35;5.22;;;2.00;;
58950;SDS011;44730;53.158;6.398;2023-05-17T14:02:07;4.88;;;1.90;;
58950;SDS011;44730;53.158;6.398;2023-05-17T14:04:33;6.47;;;1.98;;
58950;SDS011;44730;53.158;6.398;2023-05-17T14:07:00;3.97;;;1.80;;
58950;SDS011;44730;53.158;6.398;2023-05-17T14:09:27;4.43;;;1.77;;
58950;SDS011;44730;53.158;6.398;2023-05-17T14:11:59;9.43;;;1.80;;
58950;SDS011;44730;53.158;6.398;2023-05-17T14:14:26;3.58;;;2.10;;
58950;SDS011;44730;53.158;6.398;2023-05-17T14:16:54;4.70;;;2.00;;
58950;SDS011;44730;53.158;6.398;2023-05-17T14:19:20;3.83;;;2.08;;
58950;SDS011;44730;53.158;6.398;2023-05-17T14:21:46;5.35;;;1.95;;
58950;SDS011;44730;53.158;6.398;2023-05-17T14:24:12;4.00;;;2.03;;
58950;SDS011;44730;53.158;6.398;2023-05-17T14:26:38;4.32;;;2.20;;
58950;SDS011;44730;53.158;6.398;2023-05-17T14:29:04;4.60;;;2.00;;
58950;SDS011;44730;53.158;6.398;2023-05-17T14:31:31;3.22;;;1.80;;
58950;SDS011;44730;53.158;6.398;2023-05-17T14:33:57;2.83;;;1.90;;
58950;SDS011;44730;53.158;6.398;2023-05-17T14:36:26;4.50;;;1.67;;
58950;SDS011;44730;53.158;6.398;2023-05-17T14:38:53;5.22;;;2.38;;
58950;SDS011;44730;53.158;6.398;2023-05-17T14:41:19;4.43;;;1.90;;
58950;SDS011;44730;53.158;6.398;2023-05-17T14:43:48;4.78;;;2.20;;
58950;SDS011;44730;53.158;6.398;2023-05-17T14:46:15;5.18;;;2.00;;
58950;SDS011;44730;53.158;6.398;2023-05-17T14:48:41;4.50;;;2.15;;
58950;SDS011;44730;53.158;6.398;2023-05-17T14:51:07;4.10;;;1.98;;
58950;SDS011;44730;53.158;6.398;2023-05-17T14:53:33;7.00;;;2.30;;
58950;SDS011;44730;53.158;6.398;2023-05-17T14:55:59;4.00;;;1.80;;
58950;SDS011;44730;53.158;6.398;2023-05-17T14:58:26;3.83;;;1.85;;
58950;SDS011;44730;53.158;6.398;2023-05-17T15:00:52;3.50;;;1.83;;
58950;SDS011;44730;53.158;6.398;2023-05-17T15:03:23;6.15;;;2.08;;
58950;SDS011;44730;53.158;6.398;2023-05-17T15:05:52;4.35;;;2.20;;
58950;SDS011;44730;53.158;6.398;2023-05-17T15:08:19;4.72;;;1.80;;
58950;SDS011;44730;53.158;6.398;2023-05-17T15:10:46;4.22;;;1.83;;